createdAt,value
2022-08-27T00:05:22.964Z,95848.41
2022-08-27T00:20:28.386Z,95842.19
2022-08-27T00:35:30.923Z,95855.16
2022-08-27T00:50:37.888Z,95860.38
2022-08-27T01:05:40.235Z,95871.56
2022-08-27T01:20:51.835Z,95870.84
2022-08-27T01:35:54.517Z,95868.63
2022-08-27T01:50:56.778Z,95874.66
2022-08-27T02:06:00.441Z,95881.09
2022-08-27T02:21:02.736Z,95875.38
2022-08-27T02:36:05.021Z,95868.78
2022-08-27T02:51:08.555Z,95865.16
2022-08-27T03:06:10.793Z,95875.44
2022-08-27T03:21:18.531Z,95857.16
2022-08-27T03:36:20.770Z,95849.59
2022-08-27T03:51:23.827Z,95850.03
2022-08-27T04:06:26.096Z,95837.84
2022-08-27T04:21:28.347Z,95855.84
2022-08-27T04:36:30.919Z,95867.88
2022-08-27T04:51:33.811Z,95877.00
2022-08-27T05:06:36.879Z,95878.69
2022-08-27T05:21:45.300Z,95876.25
2022-08-27T05:36:49.088Z,95872.97
2022-08-27T05:51:54.022Z,95872.81
2022-08-27T06:06:56.439Z,95877.50
2022-08-27T06:22:00.065Z,95884.69
2022-08-27T06:37:03.657Z,95902.94
2022-08-27T06:52:08.250Z,95905.19
2022-08-27T07:07:12.202Z,95904.09
2022-08-27T07:22:14.466Z,95895.53
2022-08-27T07:37:16.708Z,95893.44
2022-08-27T07:52:20.267Z,95914.88
2022-08-27T08:07:25.095Z,95915.53
2022-08-27T08:22:27.415Z,95902.25
2022-08-27T08:37:29.860Z,95917.25
2022-08-27T08:52:35.148Z,95925.81
2022-08-27T09:08:30.958Z,95934.31
2022-08-27T09:23:40.530Z,95928.19
2022-08-27T09:38:58.639Z,95919.69
2022-08-27T09:54:02.127Z,95930.75
2022-08-27T10:09:16.610Z,95924.19
2022-08-27T10:24:40.105Z,95932.72
2022-08-27T10:39:51.254Z,95930.56
2022-08-27T10:54:55.694Z,95922.03
2022-08-27T11:10:21.403Z,95926.69
2022-08-27T11:25:39.676Z,95934.22
2022-08-27T11:41:07.202Z,95944.91
2022-08-27T11:56:20.810Z,95950.66
2022-08-27T12:11:35.078Z,95948.13
2022-08-27T12:26:39.205Z,95944.38
2022-08-27T12:41:45.348Z,95944.38
2022-08-27T12:57:00.693Z,95929.75
2022-08-27T13:12:04.347Z,95924.06
2022-08-27T13:27:06.685Z,95935.38
2022-08-27T13:42:08.952Z,95930.28
2022-08-27T13:57:13.470Z,95925.31
2022-08-27T14:12:32.491Z,95894.59
2022-08-27T14:27:36.217Z,95901.41
2022-08-27T14:42:39.624Z,95904.41
2022-08-27T14:57:41.905Z,95910.22
2022-08-27T15:12:44.158Z,95909.03
2022-08-27T15:27:48.949Z,95907.72
2022-08-27T15:42:59.773Z,95878.38
2022-08-27T15:58:02.097Z,95862.75
2022-08-27T16:13:04.334Z,95878.56
2022-08-27T16:28:06.614Z,95879.53
2022-08-27T16:43:08.917Z,95894.25
2022-08-27T16:58:19.562Z,95908.00
2022-08-27T17:13:22.366Z,95916.25
2022-08-27T17:28:30.391Z,95932.59
2022-08-27T17:43:32.657Z,95934.09
2022-08-27T17:58:34.893Z,95951.84
2022-08-27T18:13:37.290Z,95962.88
2022-08-27T18:28:39.542Z,95970.47
2022-08-27T18:43:42.729Z,95994.72
2022-08-27T18:58:45.471Z,96013.78
2022-08-27T19:13:50.961Z,96042.59
2022-08-27T19:28:53.350Z,96054.31
2022-08-27T19:43:57.937Z,96065.88
2022-08-27T19:59:13.426Z,96071.34
2022-08-27T20:14:22.563Z,96062.16
2022-08-27T20:29:32.512Z,96055.78
2022-08-27T20:44:36.942Z,96053.94
2022-08-27T20:59:57.699Z,96062.38
2022-08-27T21:15:00.189Z,96061.06
2022-08-27T21:30:02.596Z,96076.28
2022-08-27T21:45:05.513Z,96082.84
2022-08-27T22:00:26.311Z,96081.63
2022-08-27T22:15:28.575Z,96085.31
2022-08-27T22:30:30.911Z,96085.69
2022-08-27T22:45:34.648Z,96089.13
2022-08-27T23:00:37.450Z,96085.09
2022-08-27T23:15:39.797Z,96079.75
2022-08-27T23:30:42.222Z,96070.13
2022-08-27T23:45:44.469Z,96088.72
